アピア の空港の天気 - METARとTAF

ファレオロ国際空港(サモア) ( NSFA / APW ) - サモア アピア
飛行場実況気象(Metar)
観測時間07/29 16:00 WSST (07/29 03:00 UTC)
風向・風速不定 2m/s
視程10km以上
天気現象
全天の4割程度の雲 雲底高度 670m
全天の8割程度の雲 雲底高度 4570m
気温28℃
湿度84%
気圧1013hPa
METARNSFA 290300Z VRB03KT 9999 SCT022 BKN150 28/25 Q1013
過去の天気等 Google飛行場航空写真 Wunderground天気予報

過去48時間のMETAR

飛行場予報(TAF)
発表時間: 7/29 12:17 WSST (7/28 23:17 UTC)
予報対象時間: 29日13時 WSST ~ 30日13時 WSST
風向・風速東 3m/s
視程10km以上
全天の4割程度の雲 雲底高度 610m
29日16時 WSST ~ 30日7時 WSST に 確率 40% で一時的に
視程5000m
天気現象雷雨
全天の8割程度の雲 雲底高度 460m
少しの積乱雲 雲底高度 550m
TAF NSFA 282317Z 2900/2924 09005KT 9999 SCT020
PROB40 TEMPO 2903/2918 5000 TSRA BKN015 FEW018CB